Latest Weather Observations for Jandakot

IDW60801

Issued at 4:05 am WST Monday 22 September 2014 (issued every 30 minutes, with the page automatically refreshed every 10 minutes)

About weather observations | Map of weather stations | Latest weather observations for WA | Other Formats
Station Details ID: 009172 Name: JANDAKOT AERO Lat: -32.10 Lon: 115.88 Height: 30.0 m
Data from the previous 72 hours. | See also: Recent months at Jandakot
Date/Time
WST
Temp
°C
App
Temp
°C
Dew
Point
Rel
Hum
%
Delta-T
°C
Wind Press
QNH
hPa
Press
MSL
hPa
Rain
since 9 am
mm
Dir
 
Spd
km/h
Gust
km/h
Spd
kts
Gust
kts
22/04:00am 10.0 7.0 7.5 84 1.2 S 13 19 7 10 1017.6 1017.6 27.4
22/03:30am 10.6 7.6 7.7 82 1.4 S 13 20 7 11 1017.0 1017.0 27.4
22/03:00am 10.6 6.9 8.1 84 1.2 S 17 26 9 14 1017.0 1017.0 27.4
22/02:30am 10.1 6.8 8.2 88 0.9 S 15 20 8 11 1016.5 1016.5 27.4
22/02:00am 9.8 7.3 8.4 91 0.7 S 11 15 6 8 1016.4 1016.4 27.4
22/01:30am 10.2 7.8 8.6 90 0.8 SSE 11 15 6 8 1016.5 1016.5 27.4
22/01:00am 10.6 7.9 8.8 89 0.9 S 13 17 7 9 1016.3 1016.3 27.4
22/12:30am 11.0 7.1 8.8 86 1.1 S 19 26 10 14 1015.9 1015.9 27.4
22/12:00am 11.3 7.5 8.9 85 1.2 S 19 30 10 16 1015.5 1015.5 27.4
 
Date/Time
WST
Temp
°C
App
Temp
°C
Dew
Point
Rel
Hum
%
Delta-T
°C
Wind Press
QNH
hPa
Press
MSL
hPa
Rain
since 9 am
mm
Dir
 
Spd
km/h
Gust
km/h
Spd
kts
Gust
kts
21/11:30pm 11.6 7.8 9.2 85 1.2 S 19 28 10 15 1015.1 1015.1 27.4
21/11:00pm 11.7 7.9 9.7 87 1.0 S 20 30 11 16 1015.1 1015.1 27.4
21/10:30pm 11.9 8.1 9.9 87 1.0 S 20 28 11 15 1014.6 1014.6 27.4
21/10:01pm 11.9 6.6 9.7 86 1.1 S 28 50 15 27 1014.0 1014.0 27.4
21/10:00pm 11.9 6.9 9.7 86 1.1 S 26 50 14 27 1013.9 1013.9 27.4
21/09:30pm 11.8 7.0 10.2 90 0.8 S 26 41 14 22 1013.4 1013.4 27.4
21/09:00pm 11.9 7.5 10.5 91 0.7 S 24 32 13 17 1012.9 1012.9 27.4
21/08:30pm 11.9 7.9 10.5 91 0.7 S 22 30 12 16 1012.5 1012.5 27.4
21/08:00pm 11.9 7.1 10.3 90 0.8 S 26 39 14 21 1012.0 1012.0 27.4
21/07:30pm 11.7 5.9 10.9 95 0.4 S 32 48 17 26 1011.5 1011.5 27.4
21/07:14pm 11.9 6.1 10.9 94 0.5 S 32 50 17 27 1010.9 1010.9 27.2
21/07:00pm 11.9 5.5 10.7 92 0.6 SSW 35 52 19 28 1010.7 1010.7 26.6
21/06:39pm 12.2 5.5 11.1 93 0.6 SSW 37 59 20 32 1009.7 1009.7 25.2
21/06:30pm 12.4 6.6 11.5 94 0.5 SW 33 56 18 30 1009.2 1009.2 24.8
21/06:28pm 12.5 6.7 11.6 94 0.5 SW 33 56 18 30 1009.1 1009.1 24.8
21/06:24pm 12.5 6.7 11.6 94 0.5 SW 33 44 18 24 1009.0 1009.0 24.6
21/06:23pm 12.5 6.7 11.6 94 0.5 SW 33 44 18 24 1009.0 1009.0 24.4
21/06:21pm 12.5 6.9 11.6 94 0.5 SW 32 44 17 24 1008.9 1008.9 24.4
21/06:04pm 13.0 8.3 11.9 93 0.6 W 28 32 15 17 1009.0 1009.0 23.0
21/06:02pm 13.0 6.5 11.7 92 0.7 WNW 37 56 20 30 1009.0 1009.0 22.8
21/06:00pm 13.0 6.5 11.7 92 0.7 WNW 37 56 20 30 1008.9 1008.9 22.4
21/05:55pm 13.1 7.0 11.8 92 0.7 WNW 35 56 19 30 1009.0 1009.0 21.4
21/05:52pm 13.7 8.4 12.4 92 0.7 NW 32 44 17 24 1009.0 1009.0 20.4
21/05:30pm 13.8 11.1 12.9 94 0.5 WNW 19 22 10 12 1008.6 1008.6 19.8
21/05:25pm 13.8 11.1 12.9 94 0.5 WNW 19 24 10 13 1008.7 1008.7 19.8
21/05:03pm 14.3 13.7 13.4 94 0.5 N 9 13 5 7 1008.6 1008.6 18.0
21/05:00pm 14.4 13.7 13.3 93 0.6 N 9 13 5 7 1008.6 1008.6 17.2
21/04:41pm 14.3 11.7 13.2 93 0.6 N 19 26 10 14 1008.9 1008.9 16.8
21/04:31pm 14.3 12.6 13.6 96 0.4 NW 15 20 8 11 1008.6 1008.6 16.6
21/04:30pm 14.3 13.0 13.6 96 0.4 NW 13 20 7 11 1008.6 1008.6 16.6
21/04:22pm 14.3 13.7 13.6 96 0.4 NNW 9 15 5 8 1008.8 1008.8 16.2
21/04:00pm 14.2 12.4 13.3 94 0.5 NNE 15 19 8 10 1008.4 1008.4 15.0
21/03:30pm 13.9 12.3 12.8 93 0.6 NNE 13 19 7 10 1008.2 1008.2 14.6
21/03:00pm 13.7 11.9 12.2 91 0.8 NNE 13 15 7 8 1008.2 1008.2 14.6
21/02:30pm 13.7 12.5 11.6 87 1.1 NNW 9 11 5 6 1009.1 1009.1 14.2
21/02:00pm 13.4 12.7 12.1 92 0.7 SW 7 9 4 5 1008.0 1008.0 13.8
21/01:30pm 13.3 10.6 11.8 91 0.8 W 17 24 9 13 1008.3 1008.3 13.0
21/01:12pm 13.6 10.5 12.3 92 0.7 WSW 20 28 11 15 1007.7 1007.7 12.0
21/01:02pm 13.7 10.4 12.8 94 0.5 W 22 32 12 17 1008.5 1008.5 11.6
21/01:00pm 13.7 10.4 12.8 94 0.5 W 22 32 12 17 1008.3 1008.3 11.6
21/12:34pm 13.9 11.0 13.0 94 0.5 W 20 28 11 15 1008.8 1008.8 11.0
21/12:30pm 13.9 10.7 13.0 94 0.5 W 22 33 12 18 1009.0 1009.0 11.0
21/12:12pm 14.2 10.7 13.5 96 0.4 WSW 24 33 13 18 1008.3 1008.3 10.2
21/12:00pm 13.9 10.8 13.4 97 0.3 WSW 22 30 12 16 1007.6 1007.6 9.8
21/11:36am 13.7 7.6 13.0 96 0.4 W 37 43 20 23 1007.6 1007.6 6.0
21/11:32am 14.0 9.4 13.5 97 0.3 SW 30 48 16 26 1007.2 1007.2 5.6
21/11:31am 14.5 10.4 13.8 96 0.4 SW 28 44 15 24 1007.1 1007.1 5.6
21/11:30am 14.6 10.6 14.1 97 0.3 SW 28 44 15 24 1007.0 1007.0 5.4
21/11:00am 14.9 11.3 14.2 96 0.4 SW 26 41 14 22 1006.6 1006.5 3.8
21/10:56am 14.8 12.4 14.3 97 0.3 SW 20 35 11 19 1006.4 1006.3 3.6
21/10:52am 15.0 13.1 14.3 96 0.4 SW 17 28 9 15 1006.5 1006.4 3.2
21/10:49am 15.1 13.4 14.6 97 0.3 SW 17 24 9 13 1006.5 1006.4 2.8
21/10:48am 15.1 13.4 14.6 97 0.3 SW 17 26 9 14 1006.6 1006.5 2.8
21/10:30am 14.9 10.4 13.8 93 0.6 WSW 30 41 16 22 1006.3 1006.2 1.8
21/10:25am 14.7 9.7 13.4 92 0.7 WSW 32 41 17 22 1006.4 1006.3 1.2
21/10:00am 15.8 11.0 14.6 93 0.7 WSW 33 44 18 24 1005.5 1005.4 0.6
21/09:54am 16.9 11.5 15.0 88 1.1 WSW 37 44 20 24 1005.4 1005.3 0.6
21/09:53am 17.5 13.0 15.3 87 1.3 W 33 44 18 24 1005.3 1005.2 0.6
21/09:46am 19.5 12.5 14.2 71 3.1 NW 44 59 24 32 1005.1 1005.0 0.0
21/09:30am 21.9 15.1 12.0 53 5.6 N 39 63 21 34 1004.6 1004.5 0.0
21/09:00am 21.5 14.9 11.5 53 5.6 N 37 56 20 30 1004.8 1004.7 0.0
21/08:32am 21.7 14.6 10.8 50 6.0 N 39 57 21 31 1004.6 1004.5 0.0
21/08:30am 21.5 14.4 10.8 50 5.9 N 39 54 21 29 1004.7 1004.6 0.0
21/08:15am 21.1 14.6 10.5 50 5.8 N 35 57 19 31 1005.0 1004.9 0.0
21/08:00am 20.6 14.1 10.3 51 5.6 N 35 44 19 24 1005.1 1005.0 0.0
21/07:30am 19.5 13.0 10.2 55 5.0 N 35 48 19 26 1005.5 1005.4 0.0
21/07:00am 18.5 12.0 10.5 59 4.3 NNE 35 43 19 23 1005.3 1005.2 0.0
21/06:30am 17.9 12.9 11.1 64 3.7 NNE 28 39 15 21 1005.8 1005.7 0.0
21/06:00am 17.4 14.2 11.3 67 3.3 N 19 24 10 13 1006.3 1006.2 0.0
21/05:30am 17.4 14.6 11.3 67 3.3 N 17 20 9 11 1006.5 1006.4 0.0
21/05:00am 17.2 13.9 11.5 69 3.1 N 20 28 11 15 1006.6 1006.5 0.0
21/04:30am 17.3 13.6 11.6 69 3.1 N 22 28 12 15 1006.6 1006.5 0.0
21/04:00am 17.4 13.9 12.2 71 2.9 N 22 30 12 16 1006.7 1006.6 0.0
21/03:30am 17.6 13.9 12.8 73 2.7 N 24 33 13 18 1007.2 1007.2 0.0
21/03:00am 17.5 14.5 13.8 79 2.1 N 22 28 12 15 1007.5 1007.5 0.0
21/02:30am 17.2 14.7 14.2 82 1.7 N 20 28 11 15 1008.0 1008.0 0.0
21/02:00am 17.0 14.2 14.2 83 1.6 N 22 28 12 15 1008.4 1008.4 0.0
21/01:30am 16.7 14.4 14.6 87 1.2 NNE 20 24 11 13 1008.9 1008.9 0.0
21/01:00am 16.6 14.9 14.7 88 1.1 NNE 17 20 9 11 1009.2 1009.2 0.0
21/12:30am 15.8 14.7 14.4 91 0.8 NNE 13 15 7 8 1009.6 1009.6 0.0
21/12:00am 15.8 15.1 14.2 90 0.9 NNE 11 15 6 8 1010.1 1010.1 0.0
 
Date/Time
WST
Temp
°C
App
Temp
°C
Dew
Point
Rel
Hum
%
Delta-T
°C
Wind Press
QNH
hPa
Press
MSL
hPa
Rain
since 9 am
mm
Dir
 
Spd
km/h
Gust
km/h
Spd
kts
Gust
kts
20/11:30pm 17.3 16.9 15.1 87 1.3 N 11 15 6 8 1010.7 1010.7 0.0
20/11:00pm 18.4 17.6 16.0 86 1.4 N 15 19 8 10 1011.5 1011.5 0.0
20/10:30pm 19.4 18.5 16.8 85 1.6 N 17 24 9 13 1011.8 1011.8 0.0
20/10:00pm 19.8 18.5 16.8 83 1.8 N 19 26 10 14 1012.4 1012.4 0.0
20/09:30pm 20.1 18.9 17.0 82 1.9 N 19 28 10 15 1012.7 1012.7 0.0
20/09:00pm 20.2 18.7 16.7 80 2.1 N 20 26 11 14 1012.9 1012.9 0.0
20/08:30pm 20.1 18.5 16.5 80 2.2 N 20 33 11 18 1012.8 1012.8 0.0
20/08:00pm 20.3 18.6 16.3 78 2.4 N 20 39 11 21 1012.7 1012.7 0.0
20/07:30pm 20.2 18.8 16.6 80 2.2 N 19 28 10 15 1012.6 1012.6 0.0
20/07:00pm 20.5 19.5 16.7 79 2.3 N 17 20 9 11 1012.5 1012.5 0.0
20/06:30pm 20.7 19.2 16.4 76 2.6 N 19 26 10 14 1012.3 1012.3 0.0
20/06:00pm 21.6 18.6 15.8 69 3.5 NNW 26 35 14 19 1012.0 1012.0 0.0
20/05:30pm 22.9 17.7 12.8 53 5.8 NNW 32 50 17 27 1011.5 1011.5 0.0
20/05:26pm 23.0 17.7 12.5 51 6.0 NNW 32 50 17 27 1011.4 1011.4 0.0
20/05:00pm 24.6 19.0 8.9 37 8.5 NNW 28 39 15 21 1010.7 1010.7 0.0
20/04:30pm 26.4 20.8 7.2 29 10.2 NNW 26 39 14 21 1010.3 1010.3 0.0
20/04:00pm 26.7 20.4 7.4 29 10.3 NW 30 39 16 21 1009.6 1009.6 0.0
20/03:30pm 26.0 21.3 13.2 45 7.5 W 30 39 16 21 1009.4 1009.4 0.0
20/03:13pm 28.2 23.3 13.8 41 8.6 W 32 39 17 21 1009.3 1009.3 0.0
20/03:00pm 32.5 24.4 5.2 18 14.5 NW 37 50 20 27 1008.9 1008.9 0.0
20/02:58pm 32.6 24.2 3.6 16 15.0 NW 37 50 20 27 1008.7 1008.7 0.0
20/02:30pm 33.8 26.2 2.6 14 16.0 N 32 44 17 24 1009.0 1009.0 0.0
20/02:00pm 33.1 26.8 5.7 18 14.7 N 28 39 15 21 1009.4 1009.4 0.0
20/01:30pm 32.8 25.8 5.8 18 14.5 NNE 32 44 17 24 1010.0 1010.0 0.0
20/01:00pm 31.7 24.4 7.1 21 13.4 NNE 35 46 19 25 1010.8 1010.8 0.0
20/12:30pm 31.0 24.2 7.9 23 12.7 NNE 33 46 18 25 1011.4 1011.4 0.0
20/12:00pm 29.9 23.7 8.0 25 12.0 NNE 30 39 16 21 1011.9 1011.9 0.0
20/11:30am 28.9 22.0 7.4 25 11.6 NNE 33 46 18 25 1012.4 1012.4 0.0
20/11:00am 27.8 19.6 6.6 26 11.2 NNE 39 50 21 27 1012.9 1012.9 0.0
20/10:30am 27.2 20.2 7.0 27 10.7 NE 33 48 18 26 1013.5 1013.5 0.0
20/10:00am 26.0 19.1 7.3 30 9.9 NNE 33 41 18 22 1013.8 1013.8 0.0
20/09:30am 25.0 18.1 7.3 32 9.3 NE 33 44 18 24 1014.0 1014.0 0.0
20/09:00am 23.1 16.2 7.1 35 8.3 NE 33 46 18 25 1014.3 1014.3 0.0
20/08:30am 22.4 15.7 7.4 38 7.8 NE 32 46 17 25 1014.4 1014.4 0.0
20/08:22am 22.0 15.9 6.8 37 7.8 NE 28 46 15 25 1014.5 1014.5 0.0
20/08:00am 20.6 15.4 7.3 42 6.8 ENE 24 33 13 18 1014.7 1014.7 0.0
20/07:30am 19.6 15.4 7.5 45 6.2 NE 19 24 10 13 1015.1 1015.1 0.0
20/07:00am 18.0 13.2 7.3 49 5.4 ENE 22 28 12 15 1015.3 1015.3 0.0
20/06:30am 17.0 11.8 7.4 53 4.8 NE 24 32 13 17 1015.4 1015.4 0.0
20/06:00am 15.7 11.9 7.7 59 4.0 ENE 17 24 9 13 1015.6 1015.6 0.0
20/05:30am 15.8 11.8 8.3 61 3.8 ENE 19 24 10 13 1015.7 1015.7 0.0
20/05:00am 14.4 11.0 9.3 71 2.6 ENE 17 26 9 14 1015.8 1015.8 0.0
20/04:56am 14.1 11.1 9.2 72 2.5 ENE 15 22 8 12 1015.8 1015.8 0.0
20/04:30am 9.1 7.4 7.6 90 0.7 E 6 11 3 6 1016.0 1016.0 0.0
20/04:00am 10.0 9.7 8.8 92 0.6 CALM 0 0 0 0 1016.2 1016.2 0.0
20/03:30am 10.7 9.4 9.1 90 0.8 ENE 6 7 3 4 1016.4 1016.4 0.0
20/03:00am 12.6 11.5 10.1 85 1.3 ENE 6 9 3 5 1016.9 1016.9 0.0
20/02:30am 13.8 11.7 11.0 83 1.5 SE 13 13 7 7 1017.2 1017.2 0.0
20/02:00am 13.7 11.5 10.8 83 1.5 ESE 13 17 7 9 1017.1 1017.1 0.0
20/01:30am 14.2 11.7 11.2 82 1.6 E 15 17 8 9 1017.4 1017.4 0.0
20/01:00am 13.6 11.3 11.7 88 1.0 E 15 19 8 10 1017.8 1017.8 0.0
20/12:30am 12.5 11.3 11.7 95 0.4 SE 9 13 5 7 1018.3 1018.3 0.0
20/12:24am 12.3 11.7 11.7 96 0.3 SSE 6 9 3 5 1018.4 1018.4 0.0
20/12:04am 12.9 12.5 12.5 97 0.2 S 6 6 3 3 1018.6 1018.6 0.0
20/12:00am 13.2 12.9 12.6 96 0.3 S 6 9 3 5 1018.6 1018.6 0.0
 
Date/Time
WST
Temp
°C
App
Temp
°C
Dew
Point
Rel
Hum
%
Delta-T
°C
Wind Press
QNH
hPa
Press
MSL
hPa
Rain
since 9 am
mm
Dir
 
Spd
km/h
Gust
km/h
Spd
kts
Gust
kts
19/11:30pm 13.6 13.2 12.9 95 0.4 SSE 7 9 4 5 1018.8 1018.8 0.0
19/11:00pm 13.6 13.1 12.5 93 0.6 SSE 7 9 4 5 1019.3 1019.3 0.0
19/10:30pm 14.1 13.7 13.0 93 0.6 S 7 9 4 5 1019.8 1019.8 0.0
19/10:00pm 15.2 15.0 13.6 90 0.9 S 7 9 4 5 1020.0 1020.0 0.0
19/09:30pm 15.3 15.1 13.5 89 1.0 S 7 11 4 6 1020.4 1020.4 0.0
19/09:00pm 15.5 15.2 13.2 86 1.3 S 7 9 4 5 1020.6 1020.6 0.0
19/08:30pm 16.4 15.8 13.4 82 1.7 SSW 9 11 5 6 1020.6 1020.6 0.0
19/08:00pm 16.6 15.9 13.2 80 1.9 S 9 11 5 6 1020.7 1020.7 0.0
19/07:30pm 17.3 16.5 13.0 76 2.4 S 9 11 5 6 1020.7 1020.7 0.0
19/07:00pm 18.1 17.3 12.9 71 2.9 SSW 9 15 5 8 1020.5 1020.5 0.0
19/06:30pm 18.5 18.0 13.9 74 2.6 SW 9 13 5 7 1020.2 1020.2 0.0
19/06:00pm 19.8 18.7 14.3 70 3.2 WSW 13 15 7 8 1020.0 1020.0 0.0
19/05:30pm 21.2 19.7 14.1 64 4.1 WSW 15 19 8 10 1019.9 1019.9 0.0
19/05:00pm 22.1 20.1 14.0 60 4.7 SW 17 20 9 11 1019.6 1019.6 0.0
19/04:30pm 22.8 20.9 14.1 58 5.1 WSW 17 24 9 13 1019.5 1019.5 0.0
19/04:00pm 23.2 20.9 14.0 56 5.4 SW 19 26 10 14 1019.5 1019.5 0.0
19/03:30pm 23.5 21.1 13.7 54 5.7 SW 19 22 10 12 1019.5 1019.5 0.0
19/03:00pm 24.1 21.7 12.8 49 6.5 SW 17 20 9 11 1019.6 1019.6 0.0
19/02:30pm 24.3 22.2 13.5 51 6.3 SW 17 24 9 13 1019.9 1019.9 0.0
19/02:00pm 24.2 22.5 13.6 51 6.2 SW 15 22 8 12 1020.2 1020.2 0.0
19/01:30pm 23.7 22.9 11.6 46 6.8 WSW 7 15 4 8 1020.5 1020.5 0.0
19/01:00pm 23.0 21.3 11.3 47 6.5 ESE 11 19 6 10 1021.0 1021.0 0.0
19/12:30pm 22.6 20.8 12.1 51 5.9 SSE 13 20 7 11 1021.5 1021.5 0.0
19/12:00pm 22.6 21.3 12.6 53 5.7 SSE 11 20 6 11 1022.0 1022.0 0.0
19/11:30am 21.6 20.6 12.4 55 5.2 SE 9 13 5 7 1022.3 1022.3 0.0
19/11:00am 20.5 19.3 12.9 61 4.3 S 11 15 6 8 1022.7 1022.7 0.0
19/10:30am 19.9 18.8 13.0 64 3.9 S 11 17 6 9 1022.8 1022.8 0.0
19/10:00am 19.5 18.4 13.1 66 3.6 S 11 20 6 11 1023.0 1023.0 0.0
19/09:30am 19.4 18.3 13.2 67 3.5 S 11 17 6 9 1023.2 1023.2 0.0
19/09:00am 18.9 18.5 14.0 73 2.8 S 9 13 5 7 1023.1 1023.1 0.0
19/08:30am 17.6 17.2 14.1 80 2.0 ESE 9 13 5 7 1023.2 1023.2 0.0
19/08:00am 15.4 15.1 13.4 88 1.1 ENE 7 9 4 5 1022.9 1022.9 0.0
19/07:30am 13.4 14.3 12.8 96 0.3 CALM 0 0 0 0 1022.6 1022.6 0.0
19/07:00am 10.6 10.7 10.0 96 0.3 CALM 0 7 0 4 1022.2 1022.2 0.0
19/06:30am 8.5 8.0 7.9 96 0.3 CALM 0 0 0 0 1021.8 1021.8 0.0
19/06:20am 8.2 7.6 7.6 96 0.3 CALM 0 0 0 0 1021.8 1021.8 0.0
19/06:09am 7.9 7.3 7.3 96 0.3 CALM 0 0 0 0 1021.6 1021.6 0.0
19/06:00am 7.6 6.9 6.9 95 0.3 CALM 0 0 0 0 1021.6 1021.6 0.0
19/05:43am 8.2 7.6 7.6 96 0.3 CALM 0 0 0 0 1021.5 1021.5 0.0
19/05:37am 8.7 8.3 8.1 96 0.3 CALM 0 0 0 0 1021.5 1021.5 0.0
19/05:30am 8.9 8.5 8.3 96 0.3 CALM 0 0 0 0 1021.5 1021.5 0.0
19/05:00am 9.2 8.8 8.4 95 0.4 CALM 0 0 0 0 1021.1 1021.1 0.0
19/04:30am 9.5 9.2 8.5 93 0.5 CALM 0 0 0 0 1021.1 1021.1 0.0

Other Formats:

Comma delimited format used in spreadsheet applications
http://www.bom.gov.au/fwo/IDW60801/IDW60801.94609.axf

JavaScript Object Notation format (JSON) in row-major order
http://www.bom.gov.au/fwo/IDW60801/IDW60801.94609.json